Terminal Aerodrome Forecast
Issued by NWS Northern Indiana

Home | Current Version | Previous Version | Graphics & Text | Print | Product List | Glossary On
Versions: 1 2 3 4 5 6 7 8 9 10 11 12 13
000
FTUS43 KIWX 242300
TAFFWA
TAF
KFWA 242338Z 2500/2524 24004KT P6SM BKN025
     FM251300 06008KT 3SM -SN OVC015
     FM251800 06013G18KT 1SM -SN OVC008
      TEMPO 2519/2523 1/2SM SN FZFG VV003=

USA.gov is the U.S. government's official web portal to all federal, state and local government web resources and services.